LDRI/RJK METAR and TAF weather

Enter ICAO airport designator
Station Type Date Time Source
LDRI METAR 2019/12/07 15:00 UTC NOAA

LDRI 071500Z 12004KT 9999 FEW050 11/08 Q1018


Station Type Date Time Source
LDRI Decoded METAR 2019/12/07 15:00 UTC NOAA

Rijeka / Omisalj, Croatia (LDRI) 45-13N 014-35E
Dec 07, 2019 - 10:00 AM EST / 2019.12.07 1500 UTC
Wind: from the ESE (120 degrees) at 5 MPH (4 KT):0
Visibility: greater than 7 mile(s):0
Sky conditions: mostly clear
Temperature: 51 F (11 C)
Dew Point: 46 F (8 C)
Relative Humidity: 81%
Pressure (altimeter): 30.06 in. Hg (1018 hPa)
ob: LDRI 071500Z 12004KT 9999 FEW050 11/08 Q1018
cycle: 15

Station Type Date Time Source
LDRI TAF 2019/12/07 12:27 UTC NOAA

TAF LDRI 071125Z 0712/0812 VRB02KT 8000 SCT010 BKN040 TX12/0712Z TN05/0804Z PROB30
TEMPO 0721/0807 3000 BR BKN010

Example: see airport list